Time;durP1;ratioP1;P1;durP2;ratioP2;P2;SDS_P1;SDS_P2;PMS_P1;PMS_P2;Temp;Humidity;BMP_temperature;BMP_pressure;BME280_temperature;BME280_humidity;BME280_pressure;Samples;Min_cycle;Max_cycle;Signal;HPM_P1;HPM_P2
2022/01/01 00:02:33;;;;;;;258.17;134.53;;;;;;;;;;4858035;29;20231;-86
2022/01/01 00:17:32;;;;;;;91.80;64.93;;;;;;;;;;4828614;29;20222;-86
2022/01/01 00:20:27;;;;;;;74.07;58.43;;;;;;;;;;4891569;29;20207;-86
2022/01/01 00:23:10;;;;;;;80.43;60.20;;;;;;;;;;4894471;29;20239;-87
2022/01/01 00:39:45;;;;;;;68.03;55.97;;;;;;;;;;4953707;29;20231;-87
2022/01/01 00:42:27;;;;;;;73.37;59.77;;;;;;;;;;4954071;28;20283;-87
2022/01/01 01:11:08;;;;;;;47.73;39.67;;;;;;;;;;4952586;29;20224;-87
2022/01/01 01:16:49;;;;;;;49.00;39.23;;;;;;;;;;4958330;28;20212;-87
2022/01/01 01:19:34;;;;;;;41.80;35.67;;;;;;;;;;4958763;29;20303;-87
2022/01/01 01:25:05;;;;;;;41.97;33.90;;;;;;;;;;4952927;29;20215;-87
2022/01/01 01:27:38;;;;;;;38.97;31.20;;;;;;;;;;4958057;29;20202;-87
2022/01/01 01:30:08;;;;;;;33.80;28.40;;;;;;;;;;4958980;29;20243;-87
2022/01/01 01:32:40;;;;;;;33.20;25.87;;;;;;;;;;4957456;28;20228;-87
2022/01/01 01:35:12;;;;;;;32.37;26.63;;;;;;;;;;4959676;28;20220;-87
2022/01/01 01:37:43;;;;;;;26.97;22.57;;;;;;;;;;4958783;29;20232;-87
2022/01/01 01:40:15;;;;;;;28.50;23.57;;;;;;;;;;4958922;29;20426;-87
2022/01/01 01:42:43;;;;;;;25.53;21.77;;;;;;;;;;4972881;23;20255;-87
2022/01/01 01:45:16;;;;;;;27.63;22.73;;;;;;;;;;4957061;29;20200;-87
2022/01/01 01:47:43;;;;;;;28.83;23.77;;;;;;;;;;4955564;28;20299;-87
2022/01/01 01:50:13;;;;;;;22.90;20.50;;;;;;;;;;4956205;29;20296;-87
2022/01/01 01:52:42;;;;;;;24.73;21.70;;;;;;;;;;4959781;28;20244;-87
2022/01/01 01:55:10;;;;;;;27.53;23.10;;;;;;;;;;4956565;29;20216;-87
2022/01/01 01:57:39;;;;;;;30.97;25.33;;;;;;;;;;4956854;28;20212;-87
2022/01/01 02:00:13;;;;;;;29.40;24.97;;;;;;;;;;4961721;28;20204;-87
2022/01/01 02:02:40;;;;;;;28.60;23.40;;;;;;;;;;4955333;28;20243;-87
2022/01/01 02:05:08;;;;;;;27.43;23.20;;;;;;;;;;4959283;28;20216;-87
2022/01/01 02:07:37;;;;;;;28.30;22.50;;;;;;;;;;4956053;29;20217;-87
2022/01/01 02:10:05;;;;;;;28.33;24.50;;;;;;;;;;4956366;28;20220;-87
2022/01/01 02:12:33;;;;;;;30.63;24.13;;;;;;;;;;4955642;29;20228;-88
2022/01/01 02:15:13;;;;;;;27.50;22.83;;;;;;;;;;4958115;28;20226;-87
2022/01/01 02:17:40;;;;;;;25.17;21.60;;;;;;;;;;4956399;29;20272;-88
2022/01/01 02:20:14;;;;;;;26.50;21.33;;;;;;;;;;4958558;28;20211;-88
2022/01/01 02:22:48;;;;;;;25.73;21.23;;;;;;;;;;4960763;28;20224;-88
2022/01/01 02:25:16;;;;;;;23.47;20.97;;;;;;;;;;4967955;28;20230;-89
2022/01/01 02:27:44;;;;;;;25.30;21.10;;;;;;;;;;4958053;28;20243;-88
2022/01/01 02:30:13;;;;;;;22.47;19.87;;;;;;;;;;4964563;28;20244;-87
2022/01/01 02:32:41;;;;;;;25.73;22.67;;;;;;;;;;4967589;28;20225;-88
2022/01/01 02:35:11;;;;;;;26.67;23.07;;;;;;;;;;4966703;28;20220;-88
2022/01/01 02:37:43;;;;;;;25.33;22.53;;;;;;;;;;4969327;28;20205;-88
2022/01/01 02:40:14;;;;;;;25.80;22.63;;;;;;;;;;4973697;28;20216;-88
2022/01/01 02:42:45;;;;;;;27.10;22.13;;;;;;;;;;4968266;29;20228;-87
2022/01/01 02:45:13;;;;;;;27.20;22.53;;;;;;;;;;4972490;28;20208;-87
2022/01/01 02:47:40;;;;;;;26.80;22.53;;;;;;;;;;4969368;29;20235;-87
2022/01/01 02:50:09;;;;;;;26.97;23.67;;;;;;;;;;4972941;28;20201;-87
2022/01/01 02:52:38;;;;;;;27.17;22.73;;;;;;;;;;4968785;28;20221;-87
2022/01/01 02:55:09;;;;;;;29.53;23.83;;;;;;;;;;4968109;28;20264;-87
2022/01/01 02:57:40;;;;;;;30.80;24.57;;;;;;;;;;4955996;29;20309;-87
2022/01/01 03:00:08;;;;;;;27.50;22.80;;;;;;;;;;4982826;28;20209;-88
2022/01/01 03:02:35;;;;;;;27.27;23.63;;;;;;;;;;4972312;28;20233;-88
2022/01/01 03:05:02;;;;;;;26.07;22.17;;;;;;;;;;4986294;28;20204;-87
2022/01/01 03:07:30;;;;;;;24.40;21.07;;;;;;;;;;4955396;28;20200;-87
2022/01/01 03:09:57;;;;;;;25.53;21.13;;;;;;;;;;4955096;29;20222;-87
2022/01/01 03:12:26;;;;;;;25.20;21.23;;;;;;;;;;4960620;28;20220;-87
2022/01/01 03:14:53;;;;;;;25.77;22.30;;;;;;;;;;4948212;28;20299;-87
2022/01/01 03:17:20;;;;;;;22.60;19.87;;;;;;;;;;4959523;28;20196;-87
2022/01/01 03:19:48;;;;;;;27.87;23.13;;;;;;;;;;4954805;28;20224;-87
2022/01/01 03:22:15;;;;;;;28.77;24.30;;;;;;;;;;4954193;28;20216;-87
2022/01/01 03:24:42;;;;;;;25.07;21.57;;;;;;;;;;4955061;29;20234;-87
2022/01/01 03:27:10;;;;;;;24.70;21.07;;;;;;;;;;4960507;28;20209;-88
2022/01/01 03:29:39;;;;;;;28.43;23.43;;;;;;;;;;4955066;29;20263;-87
2022/01/01 03:32:07;;;;;;;24.10;21.07;;;;;;;;;;4959996;28;20251;-87
2022/01/01 03:34:34;;;;;;;28.13;22.80;;;;;;;;;;4955297;28;20243;-87
2022/01/01 03:37:01;;;;;;;28.33;23.60;;;;;;;;;;4954474;28;20209;-87
2022/01/01 03:39:29;;;;;;;28.23;23.37;;;;;;;;;;4954798;29;20204;-87
2022/01/01 03:41:56;;;;;;;26.97;22.67;;;;;;;;;;4954042;28;20233;-87
2022/01/01 03:44:27;;;;;;;24.97;21.40;;;;;;;;;;4953919;29;20212;-88
2022/01/01 03:47:07;;;;;;;25.37;21.83;;;;;;;;;;4947703;28;20216;-88
2022/01/01 03:49:34;;;;;;;27.60;22.17;;;;;;;;;;4953972;29;20227;-87
2022/01/01 03:52:01;;;;;;;27.07;22.60;;;;;;;;;;4954066;28;20307;-88
2022/01/01 03:54:29;;;;;;;27.50;22.33;;;;;;;;;;4957369;28;20674;-88
2022/01/01 03:56:56;;;;;;;26.47;20.67;;;;;;;;;;4959608;28;20216;-88
2022/01/01 03:59:25;;;;;;;23.07;20.47;;;;;;;;;;4954048;28;20354;-87
2022/01/01 04:01:55;;;;;;;23.43;19.77;;;;;;;;;;4957953;28;20243;-87
2022/01/01 04:04:26;;;;;;;22.40;19.40;;;;;;;;;;4947464;29;20239;-88
2022/01/01 04:06:53;;;;;;;24.97;19.60;;;;;;;;;;4954305;28;20208;-88
2022/01/01 04:09:21;;;;;;;24.37;19.53;;;;;;;;;;4954399;29;20209;-88
2022/01/01 04:11:49;;;;;;;20.03;17.63;;;;;;;;;;4955154;28;20212;-87
2022/01/01 04:14:16;;;;;;;20.00;17.43;;;;;;;;;;4955698;29;20215;-88
2022/01/01 04:16:46;;;;;;;22.73;19.57;;;;;;;;;;4969553;28;20192;-87
2022/01/01 04:19:21;;;;;;;23.60;18.93;;;;;;;;;;4975274;28;20207;-89
2022/01/01 04:21:50;;;;;;;21.60;18.23;;;;;;;;;;4962588;28;20208;-88
2022/01/01 04:24:21;;;;;;;21.60;18.00;;;;;;;;;;4953990;29;20263;-87
2022/01/01 04:26:48;;;;;;;22.17;18.60;;;;;;;;;;4954868;28;20204;-87
2022/01/01 04:29:15;;;;;;;21.93;17.67;;;;;;;;;;4957671;29;20205;-88
2022/01/01 04:31:44;;;;;;;20.63;17.10;;;;;;;;;;4957463;28;20204;-88
2022/01/01 04:34:12;;;;;;;21.70;17.80;;;;;;;;;;4956578;28;20279;-88
2022/01/01 04:36:47;;;;;;;20.27;17.23;;;;;;;;;;4956266;28;20209;-87
2022/01/01 04:39:16;;;;;;;19.53;16.70;;;;;;;;;;4957131;29;20203;-87
2022/01/01 04:41:44;;;;;;;21.07;17.93;;;;;;;;;;4957212;29;20212;-87
2022/01/01 04:44:11;;;;;;;21.30;16.80;;;;;;;;;;4957784;29;20232;-88
2022/01/01 04:46:38;;;;;;;20.70;17.33;;;;;;;;;;4958714;28;20204;-88
2022/01/01 04:49:06;;;;;;;21.20;17.67;;;;;;;;;;4957134;29;20224;-87
2022/01/01 04:51:35;;;;;;;19.73;17.30;;;;;;;;;;4957151;28;20271;-87
2022/01/01 04:54:10;;;;;;;21.13;17.43;;;;;;;;;;4960123;28;20204;-87
2022/01/01 04:56:43;;;;;;;24.90;20.10;;;;;;;;;;4957654;29;20254;-87
2022/01/01 04:59:13;;;;;;;21.43;18.37;;;;;;;;;;4957444;29;20291;-88
2022/01/01 05:01:41;;;;;;;26.27;20.53;;;;;;;;;;4956450;29;20216;-87
2022/01/01 05:04:09;;;;;;;25.40;20.80;;;;;;;;;;4957103;29;20224;-87
2022/01/01 05:06:36;;;;;;;22.83;19.30;;;;;;;;;;4956872;29;20205;-88
2022/01/01 05:09:04;;;;;;;21.40;18.13;;;;;;;;;;4957238;29;20268;-87
2022/01/01 05:11:32;;;;;;;23.07;18.73;;;;;;;;;;4956908;29;20216;-87
2022/01/01 05:14:00;;;;;;;23.43;18.27;;;;;;;;;;4957185;29;20205;-88
2022/01/01 05:16:28;;;;;;;24.20;20.03;;;;;;;;;;4956889;29;20212;-87
2022/01/01 05:18:55;;;;;;;20.87;17.90;;;;;;;;;;4957397;29;20205;-87
2022/01/01 05:21:22;;;;;;;25.90;20.03;;;;;;;;;;4956780;29;20283;-87
2022/01/01 05:23:50;;;;;;;24.03;19.37;;;;;;;;;;4956722;29;20279;-87
2022/01/01 05:26:17;;;;;;;23.27;18.33;;;;;;;;;;4956842;29;20734;-87
2022/01/01 05:28:48;;;;;;;23.17;17.80;;;;;;;;;;4958574;28;20208;-87
2022/01/01 05:31:20;;;;;;;25.20;18.73;;;;;;;;;;4956175;29;20220;-87
2022/01/01 05:33:48;;;;;;;20.03;16.73;;;;;;;;;;4956709;28;20221;-88
2022/01/01 05:36:17;;;;;;;18.27;15.27;;;;;;;;;;4956938;28;20258;-88
2022/01/01 05:38:47;;;;;;;19.73;16.67;;;;;;;;;;4956290;28;20240;-88
2022/01/01 05:41:15;;;;;;;21.03;17.20;;;;;;;;;;4956187;29;20227;-88
2022/01/01 05:43:43;;;;;;;21.57;17.23;;;;;;;;;;4956845;29;20242;-87
2022/01/01 05:46:12;;;;;;;19.73;16.73;;;;;;;;;;4956098;29;20211;-88
2022/01/01 05:48:41;;;;;;;20.73;16.87;;;;;;;;;;4953716;29;20208;-88
2022/01/01 05:51:08;;;;;;;19.63;16.60;;;;;;;;;;4955047;29;20212;-87
2022/01/01 05:53:38;;;;;;;21.40;17.60;;;;;;;;;;4955143;29;20229;-88
2022/01/01 05:56:10;;;;;;;19.93;15.83;;;;;;;;;;4955553;29;20276;-88
2022/01/01 05:58:37;;;;;;;20.93;16.60;;;;;;;;;;4950380;29;20211;-87
2022/01/01 06:01:05;;;;;;;23.37;17.90;;;;;;;;;;4956554;29;20216;-88
2022/01/01 06:03:32;;;;;;;21.80;17.20;;;;;;;;;;4962548;29;20243;-88
2022/01/01 06:06:01;;;;;;;20.27;17.57;;;;;;;;;;4957572;29;20208;-87
2022/01/01 06:08:29;;;;;;;21.43;16.83;;;;;;;;;;4956253;29;20300;-87
2022/01/01 06:10:58;;;;;;;21.67;17.50;;;;;;;;;;4956605;28;20235;-87
2022/01/01 06:13:25;;;;;;;22.03;16.93;;;;;;;;;;4961934;29;20235;-88
2022/01/01 06:15:52;;;;;;;22.67;17.27;;;;;;;;;;4969351;28;20255;-88
2022/01/01 06:18:20;;;;;;;19.20;15.50;;;;;;;;;;4982986;28;20220;-89
2022/01/01 06:20:47;;;;;;;18.03;15.00;;;;;;;;;;4975664;28;20200;-88
2022/01/01 06:23:16;;;;;;;18.40;15.03;;;;;;;;;;4972953;29;20225;-89
2022/01/01 06:25:43;;;;;;;17.23;13.37;;;;;;;;;;4972507;28;20209;-87
2022/01/01 06:28:11;;;;;;;16.87;14.10;;;;;;;;;;4972950;29;20205;-88
2022/01/01 06:30:39;;;;;;;16.57;13.50;;;;;;;;;;4975059;28;20205;-87
2022/01/01 06:33:16;;;;;;;15.20;12.47;;;;;;;;;;4975018;28;20248;-88
2022/01/01 06:35:44;;;;;;;15.33;13.03;;;;;;;;;;4971000;29;20208;-87
2022/01/01 06:38:12;;;;;;;15.57;13.33;;;;;;;;;;4963983;28;20208;-87
2022/01/01 06:40:41;;;;;;;13.67;11.17;;;;;;;;;;4971403;29;20232;-88
2022/01/01 06:43:09;;;;;;;15.67;12.83;;;;;;;;;;4974210;28;20228;-88
2022/01/01 06:45:36;;;;;;;14.50;11.73;;;;;;;;;;4970595;29;20247;-87
2022/01/01 06:48:04;;;;;;;13.77;11.63;;;;;;;;;;4975412;28;20232;-87
2022/01/01 06:50:31;;;;;;;15.20;12.53;;;;;;;;;;4960191;28;20204;-86
2022/01/01 06:52:59;;;;;;;12.80;11.50;;;;;;;;;;4955916;28;20229;-88
2022/01/01 06:55:26;;;;;;;12.70;11.27;;;;;;;;;;4956059;29;20260;-87
2022/01/01 06:57:59;;;;;;;13.53;10.63;;;;;;;;;;4959322;28;20263;-88
2022/01/01 07:00:27;;;;;;;15.47;11.57;;;;;;;;;;4956484;28;20224;-87
2022/01/01 07:02:54;;;;;;;12.73;11.33;;;;;;;;;;4955454;29;20236;-87
2022/01/01 07:05:21;;;;;;;14.63;11.70;;;;;;;;;;4957560;28;20209;-87
2022/01/01 07:07:49;;;;;;;13.63;11.83;;;;;;;;;;4956479;29;20275;-87
2022/01/01 07:10:16;;;;;;;13.30;11.40;;;;;;;;;;4956497;28;20212;-87
2022/01/01 07:12:43;;;;;;;14.50;11.33;;;;;;;;;;4966246;29;20223;-88
2022/01/01 07:15:15;;;;;;;14.40;11.87;;;;;;;;;;4980999;28;20296;-88
2022/01/01 07:17:42;;;;;;;13.70;10.90;;;;;;;;;;4968628;29;20291;-88
2022/01/01 07:20:10;;;;;;;15.07;11.93;;;;;;;;;;4965049;28;20212;-87
2022/01/01 07:22:41;;;;;;;12.67;11.03;;;;;;;;;;4977903;28;20224;-87
2022/01/01 07:25:09;;;;;;;15.27;12.30;;;;;;;;;;4978028;28;20224;-86
2022/01/01 07:27:36;;;;;;;15.27;12.17;;;;;;;;;;4970685;29;20208;-86
2022/01/01 07:30:04;;;;;;;13.23;11.07;;;;;;;;;;4960251;28;20228;-87
2022/01/01 07:32:33;;;;;;;12.23;10.90;;;;;;;;;;4965160;28;20274;-86
2022/01/01 07:35:00;;;;;;;12.40;10.90;;;;;;;;;;4956426;28;20217;-86
2022/01/01 07:37:27;;;;;;;12.53;10.03;;;;;;;;;;4961788;28;20223;-86
2022/01/01 07:39:55;;;;;;;12.37;10.83;;;;;;;;;;4960737;28;20204;-86
2022/01/01 07:42:36;;;;;;;12.73;10.83;;;;;;;;;;4985164;23;20272;-83
2022/01/01 07:51:51;;;;;;;11.00;9.83;;;;;;;;;;4946952;28;20204;-85
2022/01/01 08:06:25;;;;;;;12.10;10.20;;;;;;;;;;4905132;29;20190;-87
2022/01/01 08:08:59;;;;;;;13.70;10.87;;;;;;;;;;4951749;28;20216;-86
2022/01/01 08:11:27;;;;;;;11.90;10.10;;;;;;;;;;4964241;28;20211;-86
2022/01/01 08:17:30;;;;;;;10.53;9.37;;;;;;;;;;4966126;28;20205;-86
2022/01/01 08:23:05;;;;;;;9.77;8.47;;;;;;;;;;4967558;28;20270;-84
2022/01/01 08:25:50;;;;;;;10.90;8.87;;;;;;;;;;4967998;28;20224;-86
2022/01/01 08:28:37;;;;;;;11.20;9.13;;;;;;;;;;4965369;28;20204;-86
2022/01/01 08:31:14;;;;;;;10.30;9.20;;;;;;;;;;4956781;28;20208;-84
2022/01/01 08:34:00;;;;;;;10.20;9.20;;;;;;;;;;4971728;28;20303;-84
2022/01/01 08:36:36;;;;;;;9.73;8.53;;;;;;;;;;4965987;28;20208;-84
2022/01/01 08:39:33;;;;;;;9.63;8.63;;;;;;;;;;4955888;28;20208;-84
2022/01/01 08:50:48;;;;;;;8.87;7.97;;;;;;;;;;4933896;29;20256;-84
2022/01/01 08:53:42;;;;;;;8.60;7.30;;;;;;;;;;4950104;28;20310;-84
2022/01/01 08:56:29;;;;;;;8.07;5.63;;;;;;;;;;4952529;28;20204;-84
2022/01/01 09:16:59;;;;;;;4.70;4.27;;;;;;;;;;4860552;29;20211;-84
2022/01/01 09:19:56;;;;;;;5.63;4.80;;;;;;;;;;4917861;29;20217;-84
2022/01/01 09:22:29;;;;;;;5.47;4.67;;;;;;;;;;4882257;29;20326;-85
2022/01/01 09:25:01;;;;;;;4.60;4.07;;;;;;;;;;4891214;29;20231;-84
2022/01/01 09:27:30;;;;;;;5.33;4.67;;;;;;;;;;4891413;29;20203;-85
2022/01/01 09:29:58;;;;;;;5.17;4.37;;;;;;;;;;4898568;29;20211;-85
2022/01/01 09:32:32;;;;;;;4.40;4.00;;;;;;;;;;4900957;29;20240;-85
2022/01/01 09:35:17;;;;;;;3.80;3.47;;;;;;;;;;4902007;29;20262;-85
2022/01/01 09:37:50;;;;;;;3.57;3.27;;;;;;;;;;4898281;29;20199;-86
2022/01/01 09:55:00;;;;;;;3.30;3.00;;;;;;;;;;4862454;29;20204;-85
2022/01/01 09:57:42;;;;;;;3.50;3.20;;;;;;;;;;4868219;29;20228;-85
2022/01/01 10:07:09;;;;;;;3.77;3.00;;;;;;;;;;4860400;29;20674;-85
2022/01/01 10:10:14;;;;;;;3.60;3.23;;;;;;;;;;4866106;29;20250;-85
2022/01/01 10:15:56;;;;;;;2.83;2.60;;;;;;;;;;4829608;29;20199;-85
2022/01/01 10:18:34;;;;;;;3.40;2.73;;;;;;;;;;4829556;29;20241;-83
2022/01/01 10:21:02;;;;;;;4.13;2.83;;;;;;;;;;4830335;29;20327;-86
2022/01/01 10:23:34;;;;;;;3.23;2.93;;;;;;;;;;4866394;29;20237;-85
2022/01/01 10:29:09;;;;;;;3.60;3.30;;;;;;;;;;4899141;29;20289;-88
2022/01/01 10:37:19;;;;;;;3.70;3.10;;;;;;;;;;4902316;29;20226;-88
2022/01/01 10:39:49;;;;;;;3.30;3.00;;;;;;;;;;4902880;29;20661;-89
2022/01/01 10:42:20;;;;;;;3.03;2.80;;;;;;;;;;4905488;29;20265;-88
2022/01/01 10:44:52;;;;;;;3.40;2.97;;;;;;;;;;4903168;29;20223;-88
2022/01/01 10:47:27;;;;;;;2.77;2.53;;;;;;;;;;4901473;29;20237;-85
2022/01/01 10:50:14;;;;;;;3.50;3.20;;;;;;;;;;4928196;29;20200;-85
2022/01/01 10:52:54;;;;;;;3.47;3.17;;;;;;;;;;4942868;29;20237;-85
2022/01/01 10:55:22;;;;;;;3.10;2.80;;;;;;;;;;4936787;29;20229;-85
2022/01/01 10:58:00;;;;;;;3.30;3.00;;;;;;;;;;4938160;29;20216;-85
2022/01/01 11:00:28;;;;;;;3.13;2.83;;;;;;;;;;4940704;29;20308;-85
2022/01/01 11:03:09;;;;;;;2.90;2.60;;;;;;;;;;4937313;29;20240;-85
2022/01/01 11:05:39;;;;;;;3.00;2.40;;;;;;;;;;4937328;29;20236;-83
2022/01/01 11:08:19;;;;;;;2.53;2.30;;;;;;;;;;4938982;29;20232;-85
2022/01/01 11:10:46;;;;;;;2.87;2.30;;;;;;;;;;4933447;29;20653;-85
2022/01/01 11:13:13;;;;;;;2.87;2.40;;;;;;;;;;4940984;29;20281;-86
2022/01/01 11:15:42;;;;;;;3.60;3.00;;;;;;;;;;4934265;29;20226;-86
2022/01/01 11:18:14;;;;;;;3.33;2.80;;;;;;;;;;4942873;29;20241;-87
2022/01/01 11:20:42;;;;;;;3.03;2.73;;;;;;;;;;4935779;29;20230;-82
2022/01/01 11:23:16;;;;;;;2.77;2.50;;;;;;;;;;4940699;29;20654;-83
2022/01/01 11:25:43;;;;;;;2.87;2.57;;;;;;;;;;4942845;29;20213;-84
2022/01/01 11:28:14;;;;;;;3.23;2.87;;;;;;;;;;4939759;29;20289;-83
2022/01/01 11:30:47;;;;;;;3.75;3.35;;;;;;;;;;4928729;29;20214;-87
2022/01/01 11:36:38;;;;;;;4.90;4.40;;;;;;;;;;4874873;29;20210;-86
2022/01/01 11:39:07;;;;;;;5.65;5.07;;;;;;;;;;4871001;29;20214;-86
2022/01/01 12:43:48;;;;;;;7.30;6.57;;;;;;;;;;5011078;23;20241;-85
2022/01/01 12:46:34;;;;;;;;;;;;;;;;;;;;;
2022/01/01 12:52:13;;;;;;;8.35;7.13;;;;;;;;;;4990429;28;20215;-83
2022/01/01 12:57:29;;;;;;;8.48;7.57;;;;;;;;;;4998309;28;20238;-84
2022/01/01 13:00:16;;;;;;;8.65;7.75;;;;;;;;;;5000851;28;20211;-86
2022/01/01 13:02:45;;;;;;;8.80;7.63;;;;;;;;;;4986580;28;20254;-86
2022/01/01 13:07:59;;;;;;;7.10;6.30;;;;;;;;;;4992187;28;20202;-85
2022/01/01 13:10:27;;;;;;;6.80;6.10;;;;;;;;;;5000674;28;20203;-85
2022/01/01 13:12:54;;;;;;;7.50;6.80;;;;;;;;;;4991951;28;20293;-86
2022/01/01 13:15:23;;;;;;;7.63;6.90;;;;;;;;;;5001949;28;20243;-85
2022/01/01 13:18:04;;;;;;;6.95;6.30;;;;;;;;;;5003257;28;20207;-86
2022/01/01 13:20:35;;;;;;;6.45;5.78;;;;;;;;;;5001866;28;20226;-83
2022/01/01 13:23:05;;;;;;;6.55;5.80;;;;;;;;;;5000608;28;20235;-85
2022/01/01 13:25:33;;;;;;;6.32;5.72;;;;;;;;;;5000150;28;20257;-84
2022/01/01 13:28:00;;;;;;;6.90;6.23;;;;;;;;;;4999858;28;20246;-84
2022/01/01 13:30:28;;;;;;;6.93;6.13;;;;;;;;;;4999562;28;20289;-84
2022/01/01 13:32:55;;;;;;;6.87;6.17;;;;;;;;;;4998031;28;20239;-83
2022/01/01 13:35:28;;;;;;;7.43;6.15;;;;;;;;;;5000102;28;20192;-84
2022/01/01 13:37:55;;;;;;;6.50;5.88;;;;;;;;;;4997348;28;20697;-84
2022/01/01 13:40:26;;;;;;;6.77;6.07;;;;;;;;;;4996223;28;20196;-85
2022/01/01 13:43:29;;;;;;;7.05;5.95;;;;;;;;;;5025828;23;20230;-88
2022/01/01 13:46:06;;;;;;;7.57;6.80;;;;;;;;;;4956806;28;20228;-85
2022/01/01 13:48:58;;;;;;;6.80;5.90;;;;;;;;;;4958446;28;20272;-84
2022/01/01 13:51:35;;;;;;;7.68;6.32;;;;;;;;;;4955203;28;20231;-87
2022/01/01 13:54:08;;;;;;;7.30;6.53;;;;;;;;;;4959702;29;20224;-84
2022/01/01 13:56:39;;;;;;;6.67;5.97;;;;;;;;;;4957608;29;20679;-84
2022/01/01 13:59:07;;;;;;;9.10;6.47;;;;;;;;;;4958929;28;20212;-84
2022/01/01 14:01:35;;;;;;;8.23;5.77;;;;;;;;;;4957666;29;20232;-83
2022/01/01 14:04:04;;;;;;;6.00;5.47;;;;;;;;;;4957755;29;20234;-84
2022/01/01 14:06:34;;;;;;;6.77;5.50;;;;;;;;;;4957347;29;20225;-82
2022/01/01 14:09:04;;;;;;;6.57;5.87;;;;;;;;;;4957295;29;20226;-85
2022/01/01 14:11:32;;;;;;;6.43;5.43;;;;;;;;;;4956195;29;20228;-85
2022/01/01 14:14:10;;;;;;;6.47;5.77;;;;;;;;;;4953013;29;20256;-85
2022/01/01 14:16:44;;;;;;;6.70;5.97;;;;;;;;;;4958153;29;20204;-85
2022/01/01 14:19:14;;;;;;;7.07;5.63;;;;;;;;;;4957124;29;20279;-85
2022/01/01 14:21:42;;;;;;;6.80;5.63;;;;;;;;;;4954253;29;20208;-85
2022/01/01 14:24:17;;;;;;;6.67;5.57;;;;;;;;;;4956528;29;20220;-90
2022/01/01 14:26:45;;;;;;;6.90;5.50;;;;;;;;;;4956493;28;20315;-88
2022/01/01 14:29:13;;;;;;;7.53;5.87;;;;;;;;;;4956466;29;20236;-88
2022/01/01 14:31:41;;;;;;;6.83;6.13;;;;;;;;;;4956618;29;20244;-88
2022/01/01 14:34:13;;;;;;;7.50;6.13;;;;;;;;;;4956591;29;20224;-90
2022/01/01 14:40:03;;;;;;;6.27;5.50;;;;;;;;;;4953956;29;20220;-90
2022/01/01 14:42:30;;;;;;;6.07;5.30;;;;;;;;;;4955900;29;20266;-86
2022/01/01 14:44:58;;;;;;;5.93;5.27;;;;;;;;;;4957219;29;20228;-87
2022/01/01 14:47:28;;;;;;;5.40;4.90;;;;;;;;;;4962486;28;20201;-86
2022/01/01 14:50:00;;;;;;;5.97;5.37;;;;;;;;;;4971090;28;20312;-87
2022/01/01 14:52:32;;;;;;;5.90;5.30;;;;;;;;;;4977569;28;20193;-87
2022/01/01 14:55:05;;;;;;;6.40;5.20;;;;;;;;;;4977324;28;20208;-86
2022/01/01 14:57:39;;;;;;;6.33;4.80;;;;;;;;;;4978017;28;20196;-87
2022/01/01 15:00:11;;;;;;;7.80;6.00;;;;;;;;;;4976105;28;20207;-88
2022/01/01 15:02:39;;;;;;;6.90;5.20;;;;;;;;;;4977496;28;20185;-87
2022/01/01 15:05:08;;;;;;;6.80;5.40;;;;;;;;;;4978017;28;20208;-87
2022/01/01 15:07:35;;;;;;;5.20;4.70;;;;;;;;;;4976136;28;20189;-87
2022/01/01 15:10:12;;;;;;;6.40;5.60;;;;;;;;;;4977858;28;20197;-87
2022/01/01 15:12:40;;;;;;;7.10;5.57;;;;;;;;;;4977440;28;20204;-87
2022/01/01 15:15:08;;;;;;;5.70;5.10;;;;;;;;;;4978006;28;20212;-87
2022/01/01 15:17:36;;;;;;;6.10;5.50;;;;;;;;;;4978187;28;20224;-87
2022/01/01 15:20:03;;;;;;;7.30;5.30;;;;;;;;;;4975245;28;20201;-86
2022/01/01 15:22:35;;;;;;;6.30;5.20;;;;;;;;;;4972072;29;20188;-86
2022/01/01 15:25:03;;;;;;;6.10;5.30;;;;;;;;;;4970187;29;20233;-86
2022/01/01 15:27:34;;;;;;;6.20;5.30;;;;;;;;;;4962620;29;20228;-83
2022/01/01 15:30:16;;;;;;;5.57;5.00;;;;;;;;;;4957149;29;20288;-85
2022/01/01 15:33:14;;;;;;;9.23;6.33;;;;;;;;;;4956582;29;20204;-85
2022/01/01 15:35:50;;;;;;;6.17;5.47;;;;;;;;;;4956467;29;20201;-85
2022/01/01 15:38:25;;;;;;;8.03;6.30;;;;;;;;;;4953250;29;20211;-86
2022/01/01 15:41:01;;;;;;;8.33;6.37;;;;;;;;;;4954068;29;20215;-86
2022/01/01 15:43:31;;;;;;;9.13;6.60;;;;;;;;;;4953544;29;20240;-86
2022/01/01 15:45:58;;;;;;;9.60;6.53;;;;;;;;;;4954459;29;20235;-85
2022/01/01 15:48:27;;;;;;;8.07;6.10;;;;;;;;;;4954682;29;20205;-86
2022/01/01 15:51:05;;;;;;;;;;;;;;;;;;;;;
2022/01/01 15:56:41;;;;;;;7.53;6.33;;;;;;;;;;4953775;29;20219;-86
2022/01/01 15:59:21;;;;;;;8.67;6.33;;;;;;;;;;4954535;29;20228;-86
2022/01/01 16:08:10;;;;;;;8.37;5.83;;;;;;;;;;4934971;29;20201;-89
2022/01/01 16:10:39;;;;;;;8.57;6.93;;;;;;;;;;4934592;29;20205;-88
2022/01/01 16:13:09;;;;;;;6.57;5.57;;;;;;;;;;4954707;28;20281;-86
2022/01/01 16:15:38;;;;;;;7.97;5.37;;;;;;;;;;4975783;28;20192;-86
2022/01/01 16:18:33;;;;;;;7.73;6.13;;;;;;;;;;4975537;28;20203;-87
2022/01/01 16:21:02;;;;;;;6.90;6.00;;;;;;;;;;4974946;28;20215;-88
2022/01/01 16:23:34;;;;;;;8.70;6.70;;;;;;;;;;4975104;28;20694;-88
2022/01/01 16:26:09;;;;;;;7.20;6.27;;;;;;;;;;4977830;28;20274;-87
2022/01/01 16:28:40;;;;;;;6.83;5.67;;;;;;;;;;4976803;28;20204;-87
2022/01/01 16:31:16;;;;;;;7.30;5.80;;;;;;;;;;4977439;28;20208;-88
2022/01/01 16:33:47;;;;;;;6.03;5.20;;;;;;;;;;4975972;28;20219;-88
2022/01/01 16:36:23;;;;;;;8.30;5.90;;;;;;;;;;4974898;28;20196;-88
2022/01/01 16:39:05;;;;;;;7.63;5.90;;;;;;;;;;4975805;28;20543;-87
2022/01/01 16:42:04;;;;;;;7.60;5.83;;;;;;;;;;4975611;28;20216;-87
2022/01/01 16:44:33;;;;;;;8.70;6.07;;;;;;;;;;4978216;28;20259;-88
2022/01/01 17:57:59;;;;;;;20.97;16.13;;;;;;;;;;4973019;28;20222;-85
2022/01/01 18:00:33;;;;;;;19.97;15.13;;;;;;;;;;4974871;28;20211;-86
2022/01/01 18:03:11;;;;;;;18.67;14.03;;;;;;;;;;4975666;28;20207;-85
2022/01/01 18:05:59;;;;;;;17.23;14.30;;;;;;;;;;4973625;28;20196;-87
2022/01/01 18:08:29;;;;;;;15.27;12.97;;;;;;;;;;4975706;28;20347;-85
2022/01/01 18:11:10;;;;;;;16.40;12.80;;;;;;;;;;4974356;28;20262;-92
2022/01/01 18:14:01;;;;;;;17.37;13.80;;;;;;;;;;4974377;28;20216;-86
2022/01/01 18:16:32;;;;;;;24.50;17.53;;;;;;;;;;4975152;28;20204;-87
2022/01/01 18:22:02;;;;;;;25.03;19.57;;;;;;;;;;4972821;28;20215;-87
2022/01/01 18:24:31;;;;;;;24.07;18.83;;;;;;;;;;4976143;28;20228;-88
2022/01/01 18:27:14;;;;;;;22.10;17.70;;;;;;;;;;4975140;28;20224;-89
2022/01/01 18:29:47;;;;;;;21.37;15.47;;;;;;;;;;4973927;28;20200;-88
2022/01/01 18:32:18;;;;;;;20.53;15.60;;;;;;;;;;4977157;28;20208;-88
2022/01/01 18:34:52;;;;;;;22.97;16.37;;;;;;;;;;4975383;28;20251;-87
2022/01/01 18:37:20;;;;;;;20.37;14.37;;;;;;;;;;4974827;28;20231;-87
2022/01/01 18:39:48;;;;;;;18.13;14.37;;;;;;;;;;4975100;28;20219;-86
2022/01/01 18:42:19;;;;;;;19.70;15.40;;;;;;;;;;4974499;28;20211;-86
2022/01/01 18:44:52;;;;;;;21.17;16.90;;;;;;;;;;4971217;28;20220;-86
2022/01/01 18:47:20;;;;;;;19.83;15.70;;;;;;;;;;4972075;28;20243;-88
2022/01/01 18:49:48;;;;;;;20.27;15.77;;;;;;;;;;4974870;28;20211;-85
2022/01/01 18:52:25;;;;;;;18.70;16.40;;;;;;;;;;4974166;28;20266;-87
2022/01/01 18:54:56;;;;;;;17.40;14.93;;;;;;;;;;4974149;28;20224;-86
2022/01/01 18:58:08;;;;;;;19.00;15.27;;;;;;;;;;5148062;27;20527;-88
2022/01/01 19:00:38;;;;;;;19.20;15.27;;;;;;;;;;5110095;28;20199;-86
2022/01/01 19:03:35;;;;;;;18.87;14.23;;;;;;;;;;5117882;28;20243;-92
2022/01/01 19:06:09;;;;;;;14.87;11.53;;;;;;;;;;5104916;28;20196;-89
2022/01/01 19:11:54;;;;;;;15.67;12.10;;;;;;;;;;5061593;28;20224;-89
2022/01/01 19:14:27;;;;;;;15.47;12.23;;;;;;;;;;5062006;28;20225;-89
2022/01/01 19:16:56;;;;;;;15.23;12.47;;;;;;;;;;5069232;28;20217;-87
2022/01/01 19:19:26;;;;;;;13.80;11.23;;;;;;;;;;5051832;28;20202;-88
2022/01/01 19:22:00;;;;;;;14.93;11.80;;;;;;;;;;5044476;28;20205;-88
2022/01/01 19:27:52;;;;;;;19.50;13.67;;;;;;;;;;5044532;28;20227;-86
2022/01/01 19:30:27;;;;;;;16.50;13.57;;;;;;;;;;5045791;28;20202;-87
2022/01/01 19:32:57;;;;;;;17.53;14.43;;;;;;;;;;5030011;28;20331;-86
2022/01/01 19:35:27;;;;;;;15.60;13.07;;;;;;;;;;5034057;28;20198;-89
2022/01/01 19:37:55;;;;;;;17.13;13.07;;;;;;;;;;5033470;28;20300;-86
2022/01/01 19:40:22;;;;;;;17.30;13.50;;;;;;;;;;5047354;28;20201;-87
2022/01/01 19:42:53;;;;;;;17.63;14.23;;;;;;;;;;5034891;28;20264;-87
2022/01/01 20:03:59;;;;;;;18.23;14.83;;;;;;;;;;5067320;28;20246;-91
2022/01/01 20:06:33;;;;;;;23.53;17.03;;;;;;;;;;5069274;28;20201;-92
2022/01/01 20:09:03;;;;;;;22.77;15.77;;;;;;;;;;5057608;28;20205;-91
2022/01/01 20:11:30;;;;;;;22.77;17.80;;;;;;;;;;5056998;28;20213;-92
2022/01/01 20:13:58;;;;;;;20.87;16.30;;;;;;;;;;5058887;28;20233;-91
2022/01/01 20:16:29;;;;;;;23.23;17.93;;;;;;;;;;5057180;28;20209;-92
2022/01/01 20:18:59;;;;;;;20.67;17.00;;;;;;;;;;5055184;28;20208;-92
2022/01/01 20:21:26;;;;;;;20.90;16.10;;;;;;;;;;5054127;28;20223;-92
2022/01/01 20:24:06;;;;;;;22.93;16.70;;;;;;;;;;5055509;28;20286;-91
2022/01/01 20:26:35;;;;;;;22.80;16.27;;;;;;;;;;5056262;28;20225;-92